Saint-Yan Airport

Airport
ICAO code: 
LFLN
Summary
ICAO Region: 
EUR
Territory: 
Location: 
, Bourgogne
Serving: 
St.-yan
Elevation: 
796 ft
Coordinates: 
Aerial View: 
46° 24' 45.13" N, 4° 0' 47.75" E
Metar
Observation
LFLN 241700Z AUTO 04007KT 7000 NSC 03/01 Q1030 BECMG 3000 BR
Station
Saint-Yan
Date/Time
2022-01-24 17:00:00
Wind direction
40°
Wind speed
07 kts
Lowest cloud amount
nil significant cloud
Temperature
3°C
Dew point
1°C
Humidity
86%
QNH
1030 hPa
Weather condition
n/a

Runways

Designator Length Width Surface Rops
15R/33L 1500 30 CON No/No
15L/33R 2030 45 CON No/No
Airport map: 
Aerial View: 

SKYbrary Partners:

Safety knowledge contributed by: